sensor_id;sensor_type;location;lat;lon;timestamp;pressure;altitude;pressure_sealevel;temperature;humidity
74372;BME280;62885;51.374;6.170;2023-05-16T00:02:22;101406.19;;;10.00;99.76
74372;BME280;62885;51.374;6.170;2023-05-16T00:04:48;101414.31;;;9.98;99.08
74372;BME280;62885;51.374;6.170;2023-05-16T00:07:13;101408.94;;;9.98;98.34
74372;BME280;62885;51.374;6.170;2023-05-16T00:09:39;101411.44;;;9.87;97.23
74372;BME280;62885;51.374;6.170;2023-05-16T00:12:04;101419.56;;;9.85;97.84
74372;BME280;62885;51.374;6.170;2023-05-16T00:14:30;101422.72;;;9.78;97.10
74372;BME280;62885;51.374;6.170;2023-05-16T00:16:55;101417.16;;;9.81;97.14
74372;BME280;62885;51.374;6.170;2023-05-16T00:19:25;101414.56;;;9.79;96.74
74372;BME280;62885;51.374;6.170;2023-05-16T00:21:51;101417.06;;;9.82;96.05
74372;BME280;62885;51.374;6.170;2023-05-16T00:24:17;101419.44;;;9.73;96.25
74372;BME280;62885;51.374;6.170;2023-05-16T00:26:42;101424.53;;;9.77;95.80
74372;BME280;62885;51.374;6.170;2023-05-16T00:29:08;101423.47;;;9.80;95.67
74372;BME280;62885;51.374;6.170;2023-05-16T00:31:33;101424.78;;;9.73;95.28
74372;BME280;62885;51.374;6.170;2023-05-16T00:33:59;101428.59;;;9.69;95.47
74372;BME280;62885;51.374;6.170;2023-05-16T00:36:24;101429.47;;;9.69;94.34
74372;BME280;62885;51.374;6.170;2023-05-16T00:38:50;101426.31;;;9.63;94.54
74372;BME280;62885;51.374;6.170;2023-05-16T00:41:16;101427.84;;;9.67;94.79
74372;BME280;62885;51.374;6.170;2023-05-16T00:43:41;101431.19;;;9.70;93.57
74372;BME280;62885;51.374;6.170;2023-05-16T00:46:06;101433.38;;;9.64;94.26
74372;BME280;62885;51.374;6.170;2023-05-16T00:48:32;101432.59;;;9.62;95.19
74372;BME280;62885;51.374;6.170;2023-05-16T00:50:58;101435.19;;;9.63;94.17
74372;BME280;62885;51.374;6.170;2023-05-16T00:53:24;101431.94;;;9.58;93.62
74372;BME280;62885;51.374;6.170;2023-05-16T00:55:50;101440.25;;;9.54;93.26
74372;BME280;62885;51.374;6.170;2023-05-16T00:58:16;101429.53;;;9.54;93.28
74372;BME280;62885;51.374;6.170;2023-05-16T01:00:43;101427.91;;;9.51;93.79
74372;BME280;62885;51.374;6.170;2023-05-16T01:03:10;101437.66;;;9.52;93.96
74372;BME280;62885;51.374;6.170;2023-05-16T01:05:36;101432.50;;;9.49;94.37
74372;BME280;62885;51.374;6.170;2023-05-16T01:08:01;101438.16;;;9.59;93.45
74372;BME280;62885;51.374;6.170;2023-05-16T01:10:33;101439.47;;;9.52;93.59
74372;BME280;62885;51.374;6.170;2023-05-16T01:13:12;101435.34;;;9.46;93.38
74372;BME280;62885;51.374;6.170;2023-05-16T01:16:04;101435.75;;;9.54;93.29
74372;BME280;62885;51.374;6.170;2023-05-16T01:18:41;101442.63;;;9.58;92.13
74372;BME280;62885;51.374;6.170;2023-05-16T01:21:19;101435.56;;;9.57;92.21
74372;BME280;62885;51.374;6.170;2023-05-16T01:26:23;101443.44;;;9.44;91.57
74372;BME280;62885;51.374;6.170;2023-05-16T01:28:51;101444.38;;;9.43;92.32
74372;BME280;62885;51.374;6.170;2023-05-16T01:31:17;101440.19;;;9.39;92.41
74372;BME280;62885;51.374;6.170;2023-05-16T01:33:43;101438.44;;;9.24;92.43
74372;BME280;62885;51.374;6.170;2023-05-16T01:41:27;101452.09;;;9.34;91.65
74372;BME280;62885;51.374;6.170;2023-05-16T01:43:58;101456.00;;;9.28;91.41
74372;BME280;62885;51.374;6.170;2023-05-16T01:46:26;101469.34;;;9.28;90.41
74372;BME280;62885;51.374;6.170;2023-05-16T01:49:37;101468.25;;;9.17;90.96
74372;BME280;62885;51.374;6.170;2023-05-16T01:52:14;101472.66;;;9.18;90.94
74372;BME280;62885;51.374;6.170;2023-05-16T01:54:43;101471.28;;;9.11;90.53
74372;BME280;62885;51.374;6.170;2023-05-16T01:57:09;101472.22;;;9.10;90.98
74372;BME280;62885;51.374;6.170;2023-05-16T01:59:37;101473.00;;;9.12;90.42
74372;BME280;62885;51.374;6.170;2023-05-16T02:02:03;101468.88;;;9.06;90.50
74372;BME280;62885;51.374;6.170;2023-05-16T02:04:28;101474.31;;;9.04;90.47
74372;BME280;62885;51.374;6.170;2023-05-16T02:06:54;101481.06;;;8.96;90.59
74372;BME280;62885;51.374;6.170;2023-05-16T02:09:20;101474.94;;;8.94;90.42
74372;BME280;62885;51.374;6.170;2023-05-16T02:11:46;101483.28;;;8.88;90.99
74372;BME280;62885;51.374;6.170;2023-05-16T02:14:11;101489.03;;;8.80;90.77
74372;BME280;62885;51.374;6.170;2023-05-16T02:16:37;101483.81;;;8.79;90.49
74372;BME280;62885;51.374;6.170;2023-05-16T02:19:03;101492.84;;;8.76;91.07
74372;BME280;62885;51.374;6.170;2023-05-16T02:21:28;101493.88;;;8.74;91.04
74372;BME280;62885;51.374;6.170;2023-05-16T02:23:54;101493.78;;;8.75;90.59
74372;BME280;62885;51.374;6.170;2023-05-16T02:26:19;101507.06;;;8.77;90.78
74372;BME280;62885;51.374;6.170;2023-05-16T02:28:45;101509.47;;;8.65;90.37
74372;BME280;62885;51.374;6.170;2023-05-16T02:31:24;101511.41;;;8.62;91.46
74372;BME280;62885;51.374;6.170;2023-05-16T02:33:50;101510.81;;;8.57;90.98
74372;BME280;62885;51.374;6.170;2023-05-16T02:36:15;101511.53;;;8.60;91.16
74372;BME280;62885;51.374;6.170;2023-05-16T02:38:40;101511.88;;;8.54;91.12
74372;BME280;62885;51.374;6.170;2023-05-16T02:41:06;101518.66;;;8.60;91.01
74372;BME280;62885;51.374;6.170;2023-05-16T02:43:31;101519.00;;;8.54;90.77
74372;BME280;62885;51.374;6.170;2023-05-16T02:45:56;101523.03;;;8.45;91.90
74372;BME280;62885;51.374;6.170;2023-05-16T02:48:22;101523.81;;;8.47;91.61
74372;BME280;62885;51.374;6.170;2023-05-16T02:50:47;101524.28;;;8.55;91.82
74372;BME280;62885;51.374;6.170;2023-05-16T02:53:12;101524.94;;;8.59;91.08
74372;BME280;62885;51.374;6.170;2023-05-16T02:55:38;101534.56;;;8.46;91.35
74372;BME280;62885;51.374;6.170;2023-05-16T02:58:03;101524.16;;;8.41;91.53
74372;BME280;62885;51.374;6.170;2023-05-16T03:00:29;101533.69;;;8.45;91.03
74372;BME280;62885;51.374;6.170;2023-05-16T03:02:54;101542.75;;;8.43;91.16
74372;BME280;62885;51.374;6.170;2023-05-16T03:05:20;101537.19;;;8.30;91.79
74372;BME280;62885;51.374;6.170;2023-05-16T03:07:45;101536.31;;;8.30;91.58
74372;BME280;62885;51.374;6.170;2023-05-16T03:10:10;101543.94;;;8.20;91.80
74372;BME280;62885;51.374;6.170;2023-05-16T03:12:36;101533.97;;;8.23;92.01
74372;BME280;62885;51.374;6.170;2023-05-16T03:15:01;101540.94;;;8.26;91.69
74372;BME280;62885;51.374;6.170;2023-05-16T03:17:28;101541.34;;;8.18;91.69
74372;BME280;62885;51.374;6.170;2023-05-16T03:19:53;101539.47;;;8.20;92.03
74372;BME280;62885;51.374;6.170;2023-05-16T03:22:19;101544.09;;;8.17;91.47
74372;BME280;62885;51.374;6.170;2023-05-16T03:24:44;101542.22;;;8.19;92.14
74372;BME280;62885;51.374;6.170;2023-05-16T03:27:10;101539.19;;;8.09;91.55
74372;BME280;62885;51.374;6.170;2023-05-16T03:29:36;101546.44;;;8.06;92.05
74372;BME280;62885;51.374;6.170;2023-05-16T03:32:01;101543.00;;;8.04;92.74
74372;BME280;62885;51.374;6.170;2023-05-16T03:34:26;101546.38;;;8.07;93.15
74372;BME280;62885;51.374;6.170;2023-05-16T03:36:52;101556.72;;;8.13;92.18
74372;BME280;62885;51.374;6.170;2023-05-16T03:39:17;101555.25;;;8.08;92.87
74372;BME280;62885;51.374;6.170;2023-05-16T03:41:43;101552.16;;;8.15;92.54
74372;BME280;62885;51.374;6.170;2023-05-16T03:44:09;101557.50;;;8.15;93.40
74372;BME280;62885;51.374;6.170;2023-05-16T03:46:35;101562.31;;;8.09;93.55
74372;BME280;62885;51.374;6.170;2023-05-16T03:49:00;101567.84;;;8.04;93.07
74372;BME280;62885;51.374;6.170;2023-05-16T03:51:26;101566.84;;;8.07;92.90
74372;BME280;62885;51.374;6.170;2023-05-16T03:53:52;101575.09;;;8.02;93.33
74372;BME280;62885;51.374;6.170;2023-05-16T03:56:18;101577.66;;;8.04;92.99
74372;BME280;62885;51.374;6.170;2023-05-16T03:58:43;101581.13;;;8.06;93.01
74372;BME280;62885;51.374;6.170;2023-05-16T04:01:09;101583.47;;;8.12;93.83
74372;BME280;62885;51.374;6.170;2023-05-16T04:03:34;101583.78;;;8.23;92.55
74372;BME280;62885;51.374;6.170;2023-05-16T04:06:00;101580.66;;;8.15;92.46
74372;BME280;62885;51.374;6.170;2023-05-16T04:08:25;101582.16;;;8.20;92.14
74372;BME280;62885;51.374;6.170;2023-05-16T04:10:51;101587.00;;;8.30;92.34
74372;BME280;62885;51.374;6.170;2023-05-16T04:13:16;101590.16;;;8.38;91.67
74372;BME280;62885;51.374;6.170;2023-05-16T04:15:42;101595.56;;;8.36;90.71
74372;BME280;62885;51.374;6.170;2023-05-16T04:18:08;101601.16;;;8.32;90.20
74372;BME280;62885;51.374;6.170;2023-05-16T04:20:33;101600.41;;;8.28;90.71
74372;BME280;62885;51.374;6.170;2023-05-16T04:22:59;101597.66;;;8.30;91.55
74372;BME280;62885;51.374;6.170;2023-05-16T04:25:25;101604.88;;;8.45;91.61
74372;BME280;62885;51.374;6.170;2023-05-16T04:27:50;101601.75;;;8.54;91.37
74372;BME280;62885;51.374;6.170;2023-05-16T04:30:16;101607.81;;;8.73;89.40
74372;BME280;62885;51.374;6.170;2023-05-16T04:32:42;101612.59;;;8.84;89.25
74372;BME280;62885;51.374;6.170;2023-05-16T04:35:07;101614.34;;;9.16;88.98
74372;BME280;62885;51.374;6.170;2023-05-16T04:37:33;101616.94;;;9.49;87.29
74372;BME280;62885;51.374;6.170;2023-05-16T04:39:59;101619.81;;;9.76;86.19
74372;BME280;62885;51.374;6.170;2023-05-16T04:42:25;101617.56;;;9.84;85.80
74372;BME280;62885;51.374;6.170;2023-05-16T04:44:51;101617.81;;;9.79;86.00
74372;BME280;62885;51.374;6.170;2023-05-16T04:47:16;101615.59;;;10.02;85.48
74372;BME280;62885;51.374;6.170;2023-05-16T04:49:42;101620.13;;;10.01;84.32
74372;BME280;62885;51.374;6.170;2023-05-16T04:52:07;101633.22;;;10.06;84.07
74372;BME280;62885;51.374;6.170;2023-05-16T04:54:33;101630.00;;;10.45;83.81
74372;BME280;62885;51.374;6.170;2023-05-16T04:56:59;101630.03;;;10.73;83.15
74372;BME280;62885;51.374;6.170;2023-05-16T04:59:25;101630.28;;;10.54;82.08
74372;BME280;62885;51.374;6.170;2023-05-16T05:01:50;101629.28;;;10.27;83.54
74372;BME280;62885;51.374;6.170;2023-05-16T05:04:16;101638.84;;;10.31;82.89
74372;BME280;62885;51.374;6.170;2023-05-16T05:06:42;101635.34;;;10.31;83.44
74372;BME280;62885;51.374;6.170;2023-05-16T05:09:08;101638.88;;;10.15;84.03
74372;BME280;62885;51.374;6.170;2023-05-16T05:11:33;101636.81;;;10.64;82.60
74372;BME280;62885;51.374;6.170;2023-05-16T05:13:59;101645.06;;;10.76;80.98
74372;BME280;62885;51.374;6.170;2023-05-16T05:16:25;101640.81;;;10.57;81.80
74372;BME280;62885;51.374;6.170;2023-05-16T05:18:50;101646.41;;;10.09;82.62
74372;BME280;62885;51.374;6.170;2023-05-16T05:21:16;101650.50;;;10.00;82.52
74372;BME280;62885;51.374;6.170;2023-05-16T05:23:43;101645.59;;;10.66;82.09
74372;BME280;62885;51.374;6.170;2023-05-16T05:26:08;101648.97;;;10.84;79.61
74372;BME280;62885;51.374;6.170;2023-05-16T05:28:34;101651.44;;;11.01;79.75
74372;BME280;62885;51.374;6.170;2023-05-16T05:31:00;101656.25;;;10.82;80.79
74372;BME280;62885;51.374;6.170;2023-05-16T05:33:26;101659.66;;;10.56;82.09
74372;BME280;62885;51.374;6.170;2023-05-16T05:35:55;101658.72;;;10.85;81.45
74372;BME280;62885;51.374;6.170;2023-05-16T05:38:20;101662.00;;;11.60;79.00
74372;BME280;62885;51.374;6.170;2023-05-16T05:40:45;101664.97;;;11.69;77.71
74372;BME280;62885;51.374;6.170;2023-05-16T05:43:11;101665.59;;;11.32;78.59
74372;BME280;62885;51.374;6.170;2023-05-16T05:45:36;101664.84;;;10.73;80.65
74372;BME280;62885;51.374;6.170;2023-05-16T05:48:02;101667.22;;;10.78;81.56
74372;BME280;62885;51.374;6.170;2023-05-16T05:50:28;101662.94;;;10.75;81.66
74372;BME280;62885;51.374;6.170;2023-05-16T05:52:54;101671.94;;;10.60;82.08
74372;BME280;62885;51.374;6.170;2023-05-16T05:55:20;101672.66;;;10.48;83.43
74372;BME280;62885;51.374;6.170;2023-05-16T05:57:45;101678.16;;;11.03;80.97
74372;BME280;62885;51.374;6.170;2023-05-16T06:00:11;101674.81;;;10.71;80.80
74372;BME280;62885;51.374;6.170;2023-05-16T06:02:36;101674.69;;;10.58;81.40
74372;BME280;62885;51.374;6.170;2023-05-16T06:05:02;101684.38;;;11.32;78.65
74372;BME280;62885;51.374;6.170;2023-05-16T06:07:27;101679.72;;;11.76;76.61
74372;BME280;62885;51.374;6.170;2023-05-16T06:09:53;101687.56;;;12.06;74.86
74372;BME280;62885;51.374;6.170;2023-05-16T06:12:18;101691.03;;;12.73;72.81
74372;BME280;62885;51.374;6.170;2023-05-16T06:14:44;101691.75;;;13.87;67.68
74372;BME280;62885;51.374;6.170;2023-05-16T06:17:09;101690.97;;;15.47;60.87
74372;BME280;62885;51.374;6.170;2023-05-16T06:19:34;101681.00;;;14.81;61.77
74372;BME280;62885;51.374;6.170;2023-05-16T06:22:00;101686.66;;;13.72;64.59
74372;BME280;62885;51.374;6.170;2023-05-16T06:24:25;101699.16;;;12.07;71.47
74372;BME280;62885;51.374;6.170;2023-05-16T06:26:50;101706.47;;;11.49;74.44
74372;BME280;62885;51.374;6.170;2023-05-16T06:29:16;101702.38;;;11.30;74.97
74372;BME280;62885;51.374;6.170;2023-05-16T06:31:42;101700.09;;;11.09;76.74
74372;BME280;62885;51.374;6.170;2023-05-16T06:34:07;101701.59;;;11.42;75.50
74372;BME280;62885;51.374;6.170;2023-05-16T06:36:33;101705.66;;;12.17;73.10
74372;BME280;62885;51.374;6.170;2023-05-16T06:38:58;101716.00;;;12.23;71.99
74372;BME280;62885;51.374;6.170;2023-05-16T06:41:23;101707.69;;;11.86;72.13
74372;BME280;62885;51.374;6.170;2023-05-16T06:43:50;101710.19;;;11.61;73.75
74372;BME280;62885;51.374;6.170;2023-05-16T06:46:16;101708.31;;;11.35;76.36
74372;BME280;62885;51.374;6.170;2023-05-16T06:48:42;101707.72;;;11.01;75.57
74372;BME280;62885;51.374;6.170;2023-05-16T06:51:08;101707.53;;;10.90;76.18
74372;BME280;62885;51.374;6.170;2023-05-16T06:53:34;101711.16;;;10.89;76.74
74372;BME280;62885;51.374;6.170;2023-05-16T06:56:00;101709.38;;;11.04;75.93
74372;BME280;62885;51.374;6.170;2023-05-16T06:58:25;101709.13;;;11.64;74.21
74372;BME280;62885;51.374;6.170;2023-05-16T07:00:51;101708.03;;;12.99;68.54
74372;BME280;62885;51.374;6.170;2023-05-16T07:03:17;101713.59;;;12.58;68.75
74372;BME280;62885;51.374;6.170;2023-05-16T07:05:43;101714.03;;;11.43;72.47
74372;BME280;62885;51.374;6.170;2023-05-16T07:08:09;101724.88;;;11.27;72.78
74372;BME280;62885;51.374;6.170;2023-05-16T07:10:36;101717.19;;;11.49;73.69
74372;BME280;62885;51.374;6.170;2023-05-16T07:13:02;101719.41;;;11.43;73.78
74372;BME280;62885;51.374;6.170;2023-05-16T07:15:29;101726.22;;;11.06;73.80
74372;BME280;62885;51.374;6.170;2023-05-16T07:17:55;101719.22;;;11.32;73.61
74372;BME280;62885;51.374;6.170;2023-05-16T07:20:22;101726.09;;;11.07;72.58
74372;BME280;62885;51.374;6.170;2023-05-16T07:22:47;101724.97;;;10.83;73.29
74372;BME280;62885;51.374;6.170;2023-05-16T07:25:13;101727.88;;;10.79;74.45
74372;BME280;62885;51.374;6.170;2023-05-16T07:27:41;101730.13;;;10.86;74.32
74372;BME280;62885;51.374;6.170;2023-05-16T07:30:10;101735.88;;;11.08;73.62
74372;BME280;62885;51.374;6.170;2023-05-16T07:32:35;101732.13;;;10.97;73.89
74372;BME280;62885;51.374;6.170;2023-05-16T07:35:02;101730.22;;;11.13;72.87
74372;BME280;62885;51.374;6.170;2023-05-16T07:37:27;101724.66;;;11.30;73.40
74372;BME280;62885;51.374;6.170;2023-05-16T07:39:53;101715.97;;;11.41;71.78
74372;BME280;62885;51.374;6.170;2023-05-16T07:42:18;101715.25;;;11.66;71.11
74372;BME280;62885;51.374;6.170;2023-05-16T07:44:43;101725.69;;;11.84;71.07
74372;BME280;62885;51.374;6.170;2023-05-16T07:47:09;101731.16;;;11.83;70.46
74372;BME280;62885;51.374;6.170;2023-05-16T07:49:34;101722.56;;;11.64;69.78
74372;BME280;62885;51.374;6.170;2023-05-16T07:52:00;101738.44;;;11.67;69.30
74372;BME280;62885;51.374;6.170;2023-05-16T07:54:25;101731.16;;;11.54;68.67
74372;BME280;62885;51.374;6.170;2023-05-16T07:56:50;101736.34;;;11.43;67.94
74372;BME280;62885;51.374;6.170;2023-05-16T07:59:16;101734.53;;;11.44;67.94
74372;BME280;62885;51.374;6.170;2023-05-16T08:01:41;101730.50;;;11.51;68.25
74372;BME280;62885;51.374;6.170;2023-05-16T08:04:06;101725.31;;;11.62;68.06
74372;BME280;62885;51.374;6.170;2023-05-16T08:06:32;101730.75;;;11.89;67.92
74372;BME280;62885;51.374;6.170;2023-05-16T08:08:58;101727.69;;;12.22;68.14
74372;BME280;62885;51.374;6.170;2023-05-16T08:11:24;101730.34;;;12.49;67.13
74372;BME280;62885;51.374;6.170;2023-05-16T08:13:49;101736.22;;;12.41;65.49
74372;BME280;62885;51.374;6.170;2023-05-16T08:16:15;101731.09;;;12.24;64.74
74372;BME280;62885;51.374;6.170;2023-05-16T08:18:40;101731.75;;;11.88;64.63
74372;BME280;62885;51.374;6.170;2023-05-16T08:21:06;101735.44;;;11.71;66.31
74372;BME280;62885;51.374;6.170;2023-05-16T08:23:33;101734.63;;;11.57;67.33
74372;BME280;62885;51.374;6.170;2023-05-16T08:25:58;101729.31;;;11.83;66.73
74372;BME280;62885;51.374;6.170;2023-05-16T08:28:24;101737.75;;;11.91;68.40
74372;BME280;62885;51.374;6.170;2023-05-16T08:30:49;101738.06;;;11.87;69.20
74372;BME280;62885;51.374;6.170;2023-05-16T08:33:15;101736.47;;;12.11;67.03
74372;BME280;62885;51.374;6.170;2023-05-16T08:35:43;101740.56;;;12.17;66.58
74372;BME280;62885;51.374;6.170;2023-05-16T08:38:09;101734.41;;;12.15;66.66
74372;BME280;62885;51.374;6.170;2023-05-16T08:40:35;101745.44;;;11.83;66.55
74372;BME280;62885;51.374;6.170;2023-05-16T08:43:00;101745.09;;;12.02;66.38
74372;BME280;62885;51.374;6.170;2023-05-16T08:45:26;101741.69;;;11.86;66.45
74372;BME280;62885;51.374;6.170;2023-05-16T08:47:54;101739.66;;;11.89;66.70
74372;BME280;62885;51.374;6.170;2023-05-16T08:50:20;101751.19;;;11.77;65.87
74372;BME280;62885;51.374;6.170;2023-05-16T08:52:50;101737.78;;;11.77;66.62
74372;BME280;62885;51.374;6.170;2023-05-16T08:55:18;101735.28;;;12.15;65.43
74372;BME280;62885;51.374;6.170;2023-05-16T08:57:44;101748.78;;;12.41;65.61
74372;BME280;62885;51.374;6.170;2023-05-16T09:00:10;101736.91;;;12.57;65.81
74372;BME280;62885;51.374;6.170;2023-05-16T09:02:40;101737.53;;;12.48;60.77
74372;BME280;62885;51.374;6.170;2023-05-16T09:05:08;101728.97;;;12.29;62.11
74372;BME280;62885;51.374;6.170;2023-05-16T09:07:35;101729.63;;;12.72;59.00
74372;BME280;62885;51.374;6.170;2023-05-16T09:10:01;101732.94;;;12.63;58.94
74372;BME280;62885;51.374;6.170;2023-05-16T09:12:27;101737.97;;;12.55;60.95
74372;BME280;62885;51.374;6.170;2023-05-16T09:14:52;101743.25;;;12.29;59.25
74372;BME280;62885;51.374;6.170;2023-05-16T09:17:17;101732.69;;;12.14;59.01
74372;BME280;62885;51.374;6.170;2023-05-16T09:19:43;101741.59;;;12.14;59.13
74372;BME280;62885;51.374;6.170;2023-05-16T09:22:13;101737.34;;;12.24;59.49
74372;BME280;62885;51.374;6.170;2023-05-16T09:24:42;101735.19;;;12.56;60.94
74372;BME280;62885;51.374;6.170;2023-05-16T09:27:09;101730.19;;;12.90;59.03
74372;BME280;62885;51.374;6.170;2023-05-16T09:29:35;101731.38;;;12.86;55.58
74372;BME280;62885;51.374;6.170;2023-05-16T09:32:08;101731.69;;;12.81;55.02
74372;BME280;62885;51.374;6.170;2023-05-16T09:34:37;101737.31;;;13.29;56.66
74372;BME280;62885;51.374;6.170;2023-05-16T09:37:03;101724.50;;;13.07;52.74
74372;BME280;62885;51.374;6.170;2023-05-16T09:39:29;101730.53;;;13.23;52.75
74372;BME280;62885;51.374;6.170;2023-05-16T09:41:54;101735.03;;;13.35;54.56
74372;BME280;62885;51.374;6.170;2023-05-16T09:44:20;101726.88;;;13.24;53.39
74372;BME280;62885;51.374;6.170;2023-05-16T09:46:45;101725.38;;;13.20;54.50
74372;BME280;62885;51.374;6.170;2023-05-16T09:49:11;101726.59;;;13.16;55.63
74372;BME280;62885;51.374;6.170;2023-05-16T09:51:37;101726.41;;;13.05;56.03
74372;BME280;62885;51.374;6.170;2023-05-16T09:54:06;101725.16;;;13.23;55.91
74372;BME280;62885;51.374;6.170;2023-05-16T09:56:32;101733.13;;;13.37;53.04
74372;BME280;62885;51.374;6.170;2023-05-16T09:58:58;101717.84;;;13.38;52.75
74372;BME280;62885;51.374;6.170;2023-05-16T10:01:24;101720.28;;;13.53;53.43
74372;BME280;62885;51.374;6.170;2023-05-16T10:03:50;101715.19;;;13.74;53.24
74372;BME280;62885;51.374;6.170;2023-05-16T10:06:15;101716.81;;;13.51;51.41
74372;BME280;62885;51.374;6.170;2023-05-16T10:08:42;101718.91;;;13.35;52.59
74372;BME280;62885;51.374;6.170;2023-05-16T10:11:08;101719.41;;;13.66;51.91
74372;BME280;62885;51.374;6.170;2023-05-16T10:13:35;101718.03;;;13.47;52.82
74372;BME280;62885;51.374;6.170;2023-05-16T10:16:06;101718.59;;;13.76;54.13
74372;BME280;62885;51.374;6.170;2023-05-16T10:18:32;101713.63;;;13.83;53.33
74372;BME280;62885;51.374;6.170;2023-05-16T10:21:07;101718.28;;;14.05;52.45
74372;BME280;62885;51.374;6.170;2023-05-16T10:23:34;101737.28;;;14.03;51.54
74372;BME280;62885;51.374;6.170;2023-05-16T10:26:03;101725.38;;;13.82;51.81
74372;BME280;62885;51.374;6.170;2023-05-16T10:28:30;101735.22;;;13.57;53.03
74372;BME280;62885;51.374;6.170;2023-05-16T10:30:56;101737.72;;;12.97;55.71
74372;BME280;62885;51.374;6.170;2023-05-16T10:33:21;101730.50;;;13.10;56.44
74372;BME280;62885;51.374;6.170;2023-05-16T10:35:47;101741.69;;;12.92;57.22
74372;BME280;62885;51.374;6.170;2023-05-16T10:38:15;101742.34;;;13.08;57.34
74372;BME280;62885;51.374;6.170;2023-05-16T10:40:41;101738.25;;;13.02;54.63
74372;BME280;62885;51.374;6.170;2023-05-16T10:43:08;101732.88;;;12.90;54.81
74372;BME280;62885;51.374;6.170;2023-05-16T10:45:38;101719.97;;;13.07;54.53
74372;BME280;62885;51.374;6.170;2023-05-16T10:48:04;101732.59;;;13.20;55.36
74372;BME280;62885;51.374;6.170;2023-05-16T10:53:13;101731.28;;;13.25;50.35
74372;BME280;62885;51.374;6.170;2023-05-16T10:58:41;101727.59;;;13.51;48.86
74372;BME280;62885;51.374;6.170;2023-05-16T11:01:13;101725.72;;;13.77;47.74
74372;BME280;62885;51.374;6.170;2023-05-16T11:06:28;101729.28;;;13.65;48.11
74372;BME280;62885;51.374;6.170;2023-05-16T11:09:03;101729.63;;;13.61;48.01
74372;BME280;62885;51.374;6.170;2023-05-16T11:17:02;101726.09;;;13.96;48.54
74372;BME280;62885;51.374;6.170;2023-05-16T11:19:57;101720.09;;;14.04;47.87
74372;BME280;62885;51.374;6.170;2023-05-16T11:22:35;101726.59;;;14.38;47.92
74372;BME280;62885;51.374;6.170;2023-05-16T11:25:09;101726.59;;;14.25;47.96
74372;BME280;62885;51.374;6.170;2023-05-16T11:27:36;101719.47;;;14.37;47.67
74372;BME280;62885;51.374;6.170;2023-05-16T11:32:37;101718.88;;;14.45;47.88
74372;BME280;62885;51.374;6.170;2023-05-16T11:35:04;101705.94;;;14.50;46.48
74372;BME280;62885;51.374;6.170;2023-05-16T11:37:31;101706.72;;;14.74;47.81
74372;BME280;62885;51.374;6.170;2023-05-16T11:40:00;101716.28;;;14.67;46.34
74372;BME280;62885;51.374;6.170;2023-05-16T11:42:37;101712.25;;;14.72;46.63
74372;BME280;62885;51.374;6.170;2023-05-16T11:45:08;101719.63;;;15.04;47.11
74372;BME280;62885;51.374;6.170;2023-05-16T11:47:38;101720.56;;;14.80;45.92
74372;BME280;62885;51.374;6.170;2023-05-16T11:50:11;101720.97;;;14.28;47.93
74372;BME280;62885;51.374;6.170;2023-05-16T11:52:38;101715.94;;;14.48;48.61
74372;BME280;62885;51.374;6.170;2023-05-16T11:55:07;101706.59;;;14.75;47.43
74372;BME280;62885;51.374;6.170;2023-05-16T11:57:35;101708.84;;;14.93;48.17
74372;BME280;62885;51.374;6.170;2023-05-16T12:00:13;101706.41;;;15.12;48.55
74372;BME280;62885;51.374;6.170;2023-05-16T12:02:40;101709.72;;;14.58;48.38
74372;BME280;62885;51.374;6.170;2023-05-16T12:05:09;101714.25;;;14.58;49.36
74372;BME280;62885;51.374;6.170;2023-05-16T12:07:37;101728.69;;;14.33;48.30
74372;BME280;62885;51.374;6.170;2023-05-16T12:10:06;101719.72;;;14.45;48.52
74372;BME280;62885;51.374;6.170;2023-05-16T12:12:33;101729.50;;;14.22;50.92
74372;BME280;62885;51.374;6.170;2023-05-16T12:14:59;101725.28;;;14.31;50.81
74372;BME280;62885;51.374;6.170;2023-05-16T12:17:24;101729.56;;;14.33;50.96
74372;BME280;62885;51.374;6.170;2023-05-16T12:19:50;101722.88;;;14.39;48.96
74372;BME280;62885;51.374;6.170;2023-05-16T12:22:16;101738.06;;;14.16;50.13
74372;BME280;62885;51.374;6.170;2023-05-16T12:24:45;101725.63;;;14.03;49.59
74372;BME280;62885;51.374;6.170;2023-05-16T12:27:10;101727.06;;;14.67;48.75
74372;BME280;62885;51.374;6.170;2023-05-16T12:29:36;101719.50;;;14.24;49.09
74372;BME280;62885;51.374;6.170;2023-05-16T12:32:02;101720.56;;;14.22;49.46
74372;BME280;62885;51.374;6.170;2023-05-16T12:34:29;101715.44;;;14.77;47.42
74372;BME280;62885;51.374;6.170;2023-05-16T12:36:54;101718.34;;;14.74;47.71
74372;BME280;62885;51.374;6.170;2023-05-16T12:39:22;101710.94;;;15.00;46.39
74372;BME280;62885;51.374;6.170;2023-05-16T12:41:48;101717.69;;;14.95;44.48
74372;BME280;62885;51.374;6.170;2023-05-16T12:44:17;101722.19;;;14.24;46.33
74372;BME280;62885;51.374;6.170;2023-05-16T12:46:45;101724.66;;;14.51;47.06
74372;BME280;62885;51.374;6.170;2023-05-16T12:49:11;101723.50;;;14.66;46.55
74372;BME280;62885;51.374;6.170;2023-05-16T12:51:37;101726.00;;;14.57;46.67
74372;BME280;62885;51.374;6.170;2023-05-16T12:54:08;101734.72;;;14.49;47.84
74372;BME280;62885;51.374;6.170;2023-05-16T12:56:34;101731.19;;;14.36;46.76
74372;BME280;62885;51.374;6.170;2023-05-16T12:58:59;101732.50;;;14.54;47.17
74372;BME280;62885;51.374;6.170;2023-05-16T13:01:25;101736.03;;;14.44;47.34
74372;BME280;62885;51.374;6.170;2023-05-16T13:03:50;101740.19;;;14.48;48.33
74372;BME280;62885;51.374;6.170;2023-05-16T13:06:15;101738.84;;;14.42;46.71
74372;BME280;62885;51.374;6.170;2023-05-16T13:08:41;101728.97;;;14.54;47.12
74372;BME280;62885;51.374;6.170;2023-05-16T13:11:06;101737.59;;;14.70;46.32
74372;BME280;62885;51.374;6.170;2023-05-16T13:13:32;101735.72;;;15.05;46.13
74372;BME280;62885;51.374;6.170;2023-05-16T13:15:57;101733.84;;;14.95;44.24